createdAt,value
2022-09-17T00:01:22.935Z,59.32
2022-09-17T00:03:52.438Z,58.71
2022-09-17T00:06:22.183Z,58.52
2022-09-17T00:08:50.326Z,58.29
2022-09-17T00:11:21.690Z,58.45
2022-09-17T00:13:50.841Z,58.86
2022-09-17T00:16:25.252Z,58.59
2022-09-17T00:18:53.102Z,58.90
2022-09-17T00:21:22.904Z,58.75
2022-09-17T00:23:53.841Z,58.45
2022-09-17T00:26:21.449Z,58.66
2022-09-17T00:28:51.178Z,58.64
2022-09-17T00:31:19.141Z,58.89
2022-09-17T00:33:46.969Z,58.29
2022-09-17T00:36:14.828Z,58.73
2022-09-17T00:38:44.197Z,58.83
2022-09-17T00:41:11.866Z,58.62
2022-09-17T00:43:42.629Z,58.61
2022-09-17T00:46:31.412Z,58.59
2022-09-17T00:49:01.206Z,58.98
2022-09-17T00:51:34.564Z,58.75
2022-09-17T00:54:06.823Z,59.06
2022-09-17T00:56:37.461Z,59.03
2022-09-17T00:59:06.261Z,59.36
2022-09-17T01:01:34.985Z,59.14
2022-09-17T01:04:03.534Z,59.00
2022-09-17T01:06:35.517Z,59.33
2022-09-17T01:09:20.522Z,59.09
2022-09-17T01:12:05.957Z,59.28
2022-09-17T01:14:46.280Z,59.68
2022-09-17T01:17:21.161Z,60.42
2022-09-17T01:20:23.704Z,60.92
2022-09-17T01:23:10.316Z,61.41
2022-09-17T01:25:53.580Z,60.89
2022-09-17T01:28:44.122Z,60.89
2022-09-17T01:31:31.475Z,60.98
2022-09-17T01:34:04.570Z,61.21
2022-09-17T01:36:51.013Z,61.72
2022-09-17T01:39:30.408Z,61.95
2022-09-17T01:42:05.843Z,62.00
2022-09-17T01:44:39.023Z,62.42
2022-09-17T01:47:14.938Z,62.52
2022-09-17T01:49:45.950Z,62.85
2022-09-17T01:52:16.210Z,62.99
2022-09-17T01:54:49.158Z,62.83
2022-09-17T01:57:21.079Z,62.45
2022-09-17T01:59:52.127Z,62.23
2022-09-17T02:02:27.912Z,62.04
2022-09-17T02:05:01.195Z,61.63
2022-09-17T02:07:32.540Z,61.82
2022-09-17T02:10:05.092Z,60.95
2022-09-17T02:12:39.318Z,61.10
2022-09-17T02:15:12.658Z,60.98
2022-09-17T02:17:47.466Z,61.00
2022-09-17T02:20:22.844Z,61.04
2022-09-17T02:22:56.680Z,61.21
2022-09-17T02:25:29.639Z,61.02
2022-09-17T02:28:03.624Z,61.29
2022-09-17T02:30:32.065Z,61.37
2022-09-17T02:33:02.561Z,61.13
2022-09-17T02:35:32.006Z,60.96
2022-09-17T02:37:59.673Z,61.41
2022-09-17T02:40:30.731Z,61.34
2022-09-17T02:43:09.443Z,61.76
2022-09-17T02:45:50.435Z,62.14
2022-09-17T02:48:51.930Z,62.06
2022-09-17T02:51:30.956Z,61.40
2022-09-17T02:54:06.811Z,61.51
2022-09-17T02:56:46.104Z,61.28
2022-09-17T02:59:20.600Z,61.51
2022-09-17T03:01:57.084Z,61.51
2022-09-17T03:04:29.917Z,61.79
2022-09-17T03:06:59.472Z,61.96
2022-09-17T03:09:27.115Z,61.57
2022-09-17T03:11:54.753Z,61.58
2022-09-17T03:14:22.437Z,61.47
2022-09-17T03:16:50.017Z,61.44
2022-09-17T03:19:17.597Z,61.50
2022-09-17T03:21:46.807Z,61.51
2022-09-17T03:24:14.387Z,61.83
2022-09-17T03:26:41.983Z,61.89
2022-09-17T03:29:09.581Z,62.23
2022-09-17T03:31:37.164Z,62.52
2022-09-17T03:34:04.858Z,62.50
2022-09-17T03:36:32.501Z,62.70
2022-09-17T03:39:01.586Z,62.65
2022-09-17T03:41:29.281Z,62.56
2022-09-17T03:43:56.927Z,62.23
2022-09-17T03:46:24.545Z,62.74
2022-09-17T03:48:52.233Z,62.54
2022-09-17T03:51:19.847Z,62.41
2022-09-17T03:53:47.467Z,61.94
2022-09-17T03:56:17.748Z,61.82
2022-09-17T03:58:45.351Z,61.93
2022-09-17T04:01:12.975Z,61.39
2022-09-17T04:03:40.594Z,61.16
2022-09-17T04:06:08.678Z,61.01
2022-09-17T04:08:36.596Z,60.82
2022-09-17T04:11:04.209Z,60.93
2022-09-17T04:13:33.401Z,60.84
2022-09-17T04:16:01.096Z,60.63
2022-09-17T04:18:28.839Z,60.59
2022-09-17T04:20:56.512Z,60.30
2022-09-17T04:23:24.363Z,60.13
2022-09-17T04:25:51.962Z,60.08
2022-09-17T04:28:19.588Z,60.42
2022-09-17T04:30:48.828Z,60.02
2022-09-17T04:33:16.641Z,60.03
2022-09-17T04:35:44.459Z,59.93
2022-09-17T04:38:13.703Z,60.05
2022-09-17T04:40:42.238Z,59.86
2022-09-17T04:43:10.569Z,60.10
2022-09-17T04:45:38.234Z,59.98
2022-09-17T04:48:07.229Z,60.15
2022-09-17T04:50:35.039Z,60.38
2022-09-17T04:53:03.230Z,60.21
2022-09-17T04:55:31.229Z,60.40
2022-09-17T04:57:58.877Z,60.28
2022-09-17T05:00:26.574Z,60.22
2022-09-17T05:02:56.042Z,60.40
2022-09-17T05:05:25.526Z,60.38
2022-09-17T05:07:53.509Z,60.84
2022-09-17T05:10:23.117Z,60.71
2022-09-17T05:12:51.582Z,60.91
2022-09-17T05:15:19.673Z,60.96
2022-09-17T05:17:47.664Z,60.86
2022-09-17T05:20:16.807Z,61.17
2022-09-17T05:22:47.479Z,61.10
2022-09-17T05:25:17.065Z,60.96
2022-09-17T05:27:45.413Z,61.03
2022-09-17T05:30:14.021Z,60.99
2022-09-17T05:32:41.718Z,61.19
2022-09-17T05:35:11.171Z,61.42
2022-09-17T05:37:39.004Z,61.67
2022-09-17T05:40:10.302Z,61.43
2022-09-17T05:42:38.201Z,61.34
2022-09-17T05:45:06.558Z,61.42
2022-09-17T05:47:35.260Z,61.68
2022-09-17T05:50:02.923Z,61.38
2022-09-17T05:52:30.952Z,61.45
2022-09-17T05:54:58.594Z,61.52
2022-09-17T05:57:29.757Z,61.38
2022-09-17T05:59:57.347Z,61.53
2022-09-17T06:02:24.929Z,61.85
2022-09-17T06:04:52.566Z,61.95
2022-09-17T06:07:20.170Z,61.78
2022-09-17T06:09:48.019Z,62.13
2022-09-17T06:12:15.631Z,62.15
2022-09-17T06:14:44.687Z,61.99
2022-09-17T06:17:12.386Z,62.14
2022-09-17T06:19:39.931Z,62.15
2022-09-17T06:22:07.492Z,62.11
2022-09-17T06:24:35.106Z,61.73
2022-09-17T06:27:02.785Z,61.42
2022-09-17T06:29:30.365Z,61.38
2022-09-17T06:32:00.080Z,61.23
2022-09-17T06:34:27.754Z,61.42
2022-09-17T06:36:55.452Z,61.55
2022-09-17T06:39:24.289Z,61.71
2022-09-17T06:41:51.874Z,61.51
2022-09-17T06:44:19.460Z,61.30
2022-09-17T06:46:49.865Z,61.47
2022-09-17T06:49:18.976Z,61.42
2022-09-17T06:51:46.553Z,61.31
2022-09-17T06:54:14.356Z,60.96
2022-09-17T06:56:42.020Z,61.02
2022-09-17T06:59:09.617Z,61.20
2022-09-17T07:01:37.282Z,61.06
2022-09-17T07:04:05.060Z,61.03
2022-09-17T07:06:34.079Z,60.74
2022-09-17T07:09:02.043Z,60.70
2022-09-17T07:11:31.409Z,60.67
2022-09-17T07:13:59.173Z,60.07
2022-09-17T07:16:28.166Z,60.21
2022-09-17T07:18:55.900Z,60.26
2022-09-17T07:21:23.556Z,60.24
2022-09-17T07:23:52.869Z,60.11
2022-09-17T07:26:20.534Z,59.85
2022-09-17T07:28:48.429Z,59.48
2022-09-17T07:31:16.909Z,59.31
2022-09-17T07:33:45.488Z,59.12
2022-09-17T07:36:14.859Z,59.12
2022-09-17T07:38:42.747Z,59.62
2022-09-17T07:41:13.876Z,59.53
2022-09-17T07:43:42.166Z,59.45
2022-09-17T07:46:14.948Z,59.27
2022-09-17T07:48:42.606Z,59.02
2022-09-17T07:51:16.257Z,59.06
2022-09-17T07:53:43.958Z,58.35
2022-09-17T07:56:12.999Z,57.75
2022-09-17T07:58:40.822Z,57.89
2022-09-17T08:01:10.157Z,57.78
2022-09-17T08:03:39.443Z,57.27
2022-09-17T08:06:09.441Z,57.67
2022-09-17T08:08:39.383Z,57.87
2022-09-17T08:11:08.858Z,57.89
2022-09-17T08:13:38.562Z,56.72
2022-09-17T08:16:08.356Z,56.71
2022-09-17T08:18:36.943Z,55.68
2022-09-17T08:21:07.037Z,54.89
2022-09-17T08:23:36.822Z,54.28
2022-09-17T08:26:06.268Z,53.62
2022-09-17T08:28:34.185Z,52.12
2022-09-17T08:31:05.810Z,48.95
2022-09-17T08:33:33.938Z,43.50
2022-09-17T08:36:02.650Z,40.28
2022-09-17T08:38:37.780Z,34.40
2022-09-17T08:41:20.665Z,30.04
2022-09-17T08:43:59.491Z,29.37
2022-09-17T08:46:32.084Z,32.83
2022-09-17T08:49:07.458Z,36.60
2022-09-17T08:51:47.452Z,39.71
2022-09-17T08:54:22.533Z,42.43
2022-09-17T08:57:04.881Z,43.82
2022-09-17T08:59:38.848Z,42.84
2022-09-17T09:02:33.281Z,36.02
2022-09-17T09:05:09.661Z,30.23
2022-09-17T09:07:42.448Z,26.11
2022-09-17T09:10:18.791Z,23.55
2022-09-17T09:12:48.192Z,24.06
2022-09-17T09:15:29.391Z,25.27
2022-09-17T09:18:01.299Z,28.07
2022-09-17T09:20:36.419Z,30.56
2022-09-17T09:23:13.577Z,33.35
2022-09-17T09:25:50.220Z,35.24
2022-09-17T09:28:33.894Z,36.98
2022-09-17T09:31:12.105Z,38.60
2022-09-17T09:33:47.698Z,39.62
2022-09-17T09:36:21.532Z,39.75
2022-09-17T09:38:54.371Z,40.40
2022-09-17T09:41:29.045Z,42.07
2022-09-17T09:44:12.548Z,43.50
2022-09-17T09:46:51.479Z,44.28
2022-09-17T09:49:33.480Z,45.26
2022-09-17T09:52:14.306Z,46.23
2022-09-17T09:54:59.574Z,47.19
2022-09-17T09:57:40.805Z,48.74
2022-09-17T10:00:25.847Z,49.60
2022-09-17T10:02:56.912Z,49.42
2022-09-17T10:05:26.441Z,49.57
2022-09-17T10:07:54.495Z,48.96
2022-09-17T10:10:22.257Z,48.70
2022-09-17T10:12:49.988Z,48.71
2022-09-17T10:15:26.889Z,48.53
2022-09-17T10:18:14.037Z,48.41
2022-09-17T10:20:54.679Z,47.06
2022-09-17T10:23:23.575Z,47.28
2022-09-17T10:25:52.515Z,47.17
2022-09-17T10:28:34.983Z,47.53
2022-09-17T10:31:09.021Z,47.45
2022-09-17T10:33:40.987Z,47.99
2022-09-17T10:36:14.696Z,47.00
2022-09-17T10:38:44.428Z,47.64
2022-09-17T10:41:17.759Z,47.21
2022-09-17T10:43:46.553Z,46.75
2022-09-17T10:46:19.753Z,47.37
2022-09-17T10:48:59.868Z,46.45
2022-09-17T10:51:29.166Z,47.17
2022-09-17T10:54:34.060Z,47.55
2022-09-17T10:57:02.966Z,46.78
2022-09-17T10:59:46.049Z,45.90
2022-09-17T11:02:42.469Z,46.64
2022-09-17T11:05:34.578Z,46.42
2022-09-17T11:08:11.184Z,45.80
2022-09-17T11:10:47.450Z,45.76
2022-09-17T11:13:26.069Z,45.04
2022-09-17T11:16:10.325Z,45.75
2022-09-17T11:18:41.950Z,45.97
2022-09-17T11:21:36.873Z,46.89
2022-09-17T11:24:21.324Z,47.36
2022-09-17T11:26:57.317Z,47.20
2022-09-17T11:29:44.639Z,47.33
2022-09-17T11:32:30.147Z,47.01
2022-09-17T11:35:02.438Z,47.18
2022-09-17T11:37:36.537Z,45.71
2022-09-17T11:40:14.401Z,44.87
2022-09-17T11:42:48.564Z,44.92
2022-09-17T11:45:20.462Z,44.21
2022-09-17T11:47:53.206Z,43.67
2022-09-17T11:50:24.703Z,43.97
2022-09-17T11:53:05.389Z,45.03
2022-09-17T11:55:41.141Z,44.49
2022-09-17T11:58:16.972Z,43.64
2022-09-17T12:00:51.285Z,43.45
2022-09-17T12:03:27.206Z,43.40
2022-09-17T12:05:58.764Z,40.53
2022-09-17T12:08:35.243Z,39.45
2022-09-17T12:11:10.902Z,38.71
2022-09-17T12:13:44.938Z,37.83
2022-09-17T12:16:20.356Z,34.74
2022-09-17T12:18:55.124Z,33.69
2022-09-17T12:21:28.724Z,34.26
2022-09-17T12:24:01.155Z,35.67
2022-09-17T12:26:43.644Z,37.27
2022-09-17T12:29:25.641Z,38.32
2022-09-17T12:32:02.257Z,40.14
2022-09-17T12:34:43.332Z,41.26
2022-09-17T12:37:22.502Z,43.03
2022-09-17T12:40:04.713Z,42.94
2022-09-17T12:42:48.947Z,43.02
2022-09-17T12:45:38.024Z,43.01
2022-09-17T12:48:30.529Z,42.81
2022-09-17T12:51:12.128Z,43.34
2022-09-17T12:53:45.094Z,43.66
2022-09-17T12:56:25.388Z,43.79
2022-09-17T12:59:09.715Z,44.31
2022-09-17T13:01:46.910Z,44.58
2022-09-17T13:05:00.145Z,44.69
2022-09-17T13:08:03.379Z,44.92
2022-09-17T13:10:51.304Z,45.25
2022-09-17T13:13:36.107Z,44.77
2022-09-17T13:16:15.535Z,44.55
2022-09-17T13:19:15.164Z,45.17
2022-09-17T13:21:52.521Z,44.69
2022-09-17T13:24:22.566Z,45.22
2022-09-17T13:26:50.379Z,45.80
2022-09-17T13:29:51.880Z,45.47
2022-09-17T13:32:45.544Z,45.75
2022-09-17T13:35:46.723Z,45.90
2022-09-17T13:38:14.983Z,42.88
2022-09-17T13:40:42.765Z,43.25
2022-09-17T13:43:14.050Z,43.91
2022-09-17T13:46:11.003Z,44.75
2022-09-17T13:48:58.410Z,46.06
2022-09-17T13:51:54.409Z,45.10
2022-09-17T13:54:25.644Z,45.16
2022-09-17T13:57:13.222Z,45.35
2022-09-17T13:59:55.332Z,45.33
2022-09-17T14:02:35.153Z,45.92
2022-09-17T14:05:39.503Z,45.48
2022-09-17T14:08:29.180Z,44.41
2022-09-17T14:10:59.269Z,44.53
2022-09-17T14:13:55.144Z,45.18
2022-09-17T14:16:47.636Z,46.03
2022-09-17T14:19:40.687Z,44.98
2022-09-17T14:22:18.701Z,45.38
2022-09-17T14:24:49.919Z,44.39
2022-09-17T14:27:30.882Z,44.63
2022-09-17T14:30:14.958Z,44.21
2022-09-17T14:32:48.837Z,44.24
2022-09-17T14:35:21.384Z,43.53
2022-09-17T14:37:56.178Z,43.76
2022-09-17T14:40:25.318Z,43.42
2022-09-17T14:42:56.511Z,43.80
2022-09-17T14:45:28.278Z,44.42
2022-09-17T14:48:31.496Z,44.49
2022-09-17T14:51:26.208Z,44.67
2022-09-17T14:54:17.225Z,45.05
2022-09-17T14:56:49.433Z,45.07
2022-09-17T14:59:23.862Z,45.90
2022-09-17T15:01:51.887Z,45.91
2022-09-17T15:04:25.694Z,46.10
2022-09-17T15:06:53.839Z,46.05
2022-09-17T15:09:27.762Z,46.30
2022-09-17T15:11:59.463Z,46.72
2022-09-17T15:14:29.847Z,45.91
2022-09-17T15:17:00.418Z,46.81
2022-09-17T15:19:33.426Z,47.11
2022-09-17T15:22:08.353Z,47.25
2022-09-17T15:24:42.811Z,47.46
2022-09-17T15:27:14.823Z,47.88
2022-09-17T15:29:46.257Z,48.04
2022-09-17T15:32:15.129Z,48.51
2022-09-17T15:34:42.900Z,48.54
2022-09-17T15:37:19.187Z,48.31
2022-09-17T15:39:55.566Z,48.08
2022-09-17T15:42:27.069Z,47.96
2022-09-17T15:44:54.886Z,47.26
2022-09-17T15:47:52.205Z,47.61
2022-09-17T15:50:22.653Z,48.32
2022-09-17T15:52:51.472Z,48.68
2022-09-17T15:55:36.579Z,49.42
2022-09-17T15:58:06.574Z,50.17
2022-09-17T16:00:34.408Z,51.70
2022-09-17T16:03:52.338Z,53.19
2022-09-17T16:06:37.209Z,54.45
2022-09-17T16:09:13.245Z,55.83
2022-09-17T16:11:43.964Z,56.04
2022-09-17T16:14:11.563Z,56.70
2022-09-17T16:16:39.423Z,57.67
2022-09-17T16:19:07.054Z,58.81
2022-09-17T16:21:34.655Z,59.07
2022-09-17T16:24:02.757Z,59.95
2022-09-17T16:26:33.113Z,61.25
2022-09-17T16:29:05.970Z,63.70
2022-09-17T16:31:34.832Z,63.85
2022-09-17T16:34:02.575Z,63.73
2022-09-17T16:36:32.143Z,63.33
2022-09-17T16:38:59.900Z,63.51
2022-09-17T16:41:28.709Z,62.52
2022-09-17T16:43:57.316Z,62.93
2022-09-17T16:46:26.510Z,63.97
2022-09-17T16:48:54.160Z,64.47
2022-09-17T16:51:21.961Z,65.31
2022-09-17T16:53:50.038Z,65.39
2022-09-17T16:56:17.693Z,65.75
2022-09-17T16:58:45.421Z,66.52
2022-09-17T17:01:15.151Z,65.97
2022-09-17T17:03:45.795Z,66.40
2022-09-17T17:06:17.256Z,65.86
2022-09-17T17:08:45.250Z,66.58
2022-09-17T17:11:13.190Z,66.04
2022-09-17T17:13:42.594Z,66.60
2022-09-17T17:16:12.572Z,66.72
2022-09-17T17:18:42.803Z,68.75
2022-09-17T17:21:13.659Z,70.12
2022-09-17T17:23:43.421Z,71.72
2022-09-17T17:26:11.029Z,71.87
2022-09-17T17:28:38.703Z,72.52
2022-09-17T17:31:07.583Z,72.91
2022-09-17T17:33:35.526Z,71.72
2022-09-17T17:36:08.193Z,72.14
2022-09-17T17:38:37.733Z,71.18
2022-09-17T17:41:07.498Z,70.32
2022-09-17T17:43:35.654Z,70.17
2022-09-17T17:46:05.925Z,69.26
2022-09-17T17:48:33.551Z,69.37
2022-09-17T17:51:03.954Z,69.09
2022-09-17T17:53:31.826Z,68.89
2022-09-17T17:56:02.552Z,68.26
2022-09-17T17:58:30.661Z,68.09
2022-09-17T18:00:58.531Z,67.40
2022-09-17T18:03:26.320Z,67.18
2022-09-17T18:05:56.276Z,66.05
2022-09-17T18:08:24.647Z,66.11
2022-09-17T18:10:53.294Z,66.22
2022-09-17T18:13:22.564Z,65.67
2022-09-17T18:15:55.604Z,66.28
2022-09-17T18:18:25.171Z,66.43
2022-09-17T18:20:54.802Z,66.16
2022-09-17T18:23:22.608Z,64.76
2022-09-17T18:25:54.400Z,64.81
2022-09-17T18:28:24.329Z,64.32
2022-09-17T18:30:52.018Z,64.20
2022-09-17T18:33:21.073Z,64.72
2022-09-17T18:35:49.331Z,64.66
2022-09-17T18:38:17.596Z,64.45
2022-09-17T18:40:45.581Z,64.69
2022-09-17T18:43:13.306Z,64.34
2022-09-17T18:45:42.485Z,64.57
2022-09-17T18:48:11.297Z,65.15
2022-09-17T18:50:39.695Z,65.75
2022-09-17T18:53:07.256Z,65.37
2022-09-17T18:55:34.842Z,65.37
2022-09-17T18:58:02.459Z,65.52
2022-09-17T19:00:30.143Z,65.01
2022-09-17T19:02:59.215Z,65.07
2022-09-17T19:05:27.038Z,65.52
2022-09-17T19:07:54.642Z,65.11
2022-09-17T19:10:22.215Z,64.45
2022-09-17T19:12:50.064Z,64.08
2022-09-17T19:15:17.835Z,63.93
2022-09-17T19:17:45.480Z,63.94
2022-09-17T19:20:14.596Z,64.06
2022-09-17T19:22:42.134Z,63.87
2022-09-17T19:25:10.125Z,64.06
2022-09-17T19:27:37.711Z,65.01
2022-09-17T19:30:05.883Z,65.30
2022-09-17T19:32:33.677Z,64.76
2022-09-17T19:35:01.276Z,64.82
2022-09-17T19:37:30.217Z,65.13
2022-09-17T19:39:57.852Z,65.34
2022-09-17T19:42:26.018Z,65.77
2022-09-17T19:44:53.580Z,66.04
2022-09-17T19:47:21.160Z,65.86
2022-09-17T19:49:50.929Z,66.04
2022-09-17T19:52:18.694Z,66.07
2022-09-17T19:54:49.630Z,66.42
2022-09-17T19:57:17.250Z,66.28
2022-09-17T19:59:44.781Z,66.06
2022-09-17T20:02:13.875Z,66.29
2022-09-17T20:04:41.532Z,66.06
2022-09-17T20:07:09.137Z,66.21
2022-09-17T20:09:36.757Z,66.07
2022-09-17T20:12:05.895Z,65.90
2022-09-17T20:14:33.518Z,65.59
2022-09-17T20:17:01.167Z,65.80
2022-09-17T20:19:28.803Z,65.54
2022-09-17T20:21:56.411Z,65.62
2022-09-17T20:24:24.041Z,65.68
2022-09-17T20:26:51.721Z,65.44
2022-09-17T20:29:20.673Z,65.17
2022-09-17T20:31:48.392Z,65.29
2022-09-17T20:34:16.033Z,65.00
2022-09-17T20:36:43.615Z,65.00
2022-09-17T20:39:17.958Z,65.15
2022-09-17T20:41:47.425Z,64.88
2022-09-17T20:44:15.209Z,64.79
2022-09-17T20:46:44.200Z,65.08
2022-09-17T20:49:11.957Z,64.70
2022-09-17T20:51:39.682Z,64.88
2022-09-17T20:54:08.299Z,64.60
2022-09-17T20:56:36.350Z,65.14
2022-09-17T20:59:13.062Z,64.61
2022-09-17T21:01:44.625Z,64.16
2022-09-17T21:04:16.000Z,64.02
2022-09-17T21:06:44.864Z,63.57
2022-09-17T21:09:15.975Z,63.98
2022-09-17T21:11:44.429Z,63.60
2022-09-17T21:14:12.313Z,64.00
2022-09-17T21:16:40.106Z,64.00
2022-09-17T21:19:09.507Z,63.69
2022-09-17T21:21:38.500Z,63.76
2022-09-17T21:24:09.922Z,63.85
2022-09-17T21:26:37.830Z,63.61
2022-09-17T21:29:06.400Z,63.28
2022-09-17T21:31:36.536Z,63.83
2022-09-17T21:34:06.464Z,63.83
2022-09-17T21:36:36.042Z,63.46
2022-09-17T21:39:06.907Z,63.29
2022-09-17T21:41:38.597Z,63.69
2022-09-17T21:44:09.332Z,63.69
2022-09-17T21:46:37.909Z,63.54
2022-09-17T21:49:06.553Z,63.96
2022-09-17T21:51:37.229Z,63.17
2022-09-17T21:54:08.863Z,63.19
2022-09-17T21:56:36.939Z,63.22
2022-09-17T21:59:07.032Z,63.50
2022-09-17T22:01:40.032Z,63.43
2022-09-17T22:04:09.248Z,63.83
2022-09-17T22:06:37.286Z,63.65
2022-09-17T22:09:07.511Z,64.20
2022-09-17T22:11:37.164Z,64.15
2022-09-17T22:14:09.046Z,64.00
2022-09-17T22:16:39.010Z,63.80
2022-09-17T22:19:07.797Z,64.00
2022-09-17T22:21:40.138Z,63.39
2022-09-17T22:24:10.893Z,63.55
2022-09-17T22:26:41.515Z,63.53
2022-09-17T22:29:11.844Z,63.58
2022-09-17T22:31:39.738Z,64.09
2022-09-17T22:34:09.062Z,64.04
2022-09-17T22:36:37.284Z,64.32
2022-09-17T22:39:05.822Z,64.36
2022-09-17T22:41:37.108Z,63.75
2022-09-17T22:44:06.166Z,63.61
2022-09-17T22:46:35.566Z,63.60
2022-09-17T22:49:03.956Z,63.24
2022-09-17T22:51:32.039Z,63.65
2022-09-17T22:54:00.314Z,63.55
2022-09-17T22:56:29.568Z,63.37
2022-09-17T22:58:59.611Z,63.38
2022-09-17T23:01:29.769Z,63.12
2022-09-17T23:03:58.669Z,62.96
2022-09-17T23:06:28.544Z,62.88
2022-09-17T23:08:56.267Z,63.11
2022-09-17T23:11:25.547Z,63.09
2022-09-17T23:13:53.902Z,63.30
2022-09-17T23:16:22.953Z,63.26
2022-09-17T23:18:51.062Z,63.15
2022-09-17T23:21:20.084Z,63.06
2022-09-17T23:23:50.347Z,63.18
2022-09-17T23:26:20.176Z,63.12
2022-09-17T23:28:48.182Z,63.13
2022-09-17T23:31:17.919Z,62.84
2022-09-17T23:33:47.853Z,63.28
2022-09-17T23:36:19.272Z,63.13
2022-09-17T23:38:47.957Z,63.87
2022-09-17T23:41:18.152Z,63.56
2022-09-17T23:43:47.907Z,63.80
2022-09-17T23:46:16.013Z,63.77
2022-09-17T23:48:44.302Z,64.45
2022-09-17T23:51:13.442Z,64.38
2022-09-17T23:53:41.206Z,64.11
2022-09-17T23:56:13.073Z,64.02
2022-09-17T23:58:41.577Z,64.33
